createdAt,value
2023-05-07T00:00:34.766Z,88.46
2023-05-07T00:05:37.052Z,88.26
2023-05-07T00:10:39.036Z,87.54
2023-05-07T00:15:41.108Z,87.32
2023-05-07T00:20:42.970Z,87.97
2023-05-07T00:25:44.758Z,87.87
2023-05-07T00:30:46.510Z,86.97
2023-05-07T00:35:48.400Z,86.58
2023-05-07T00:40:50.280Z,86.86
2023-05-07T00:45:52.851Z,86.30
2023-05-07T00:50:55.442Z,86.58
2023-05-07T00:55:57.896Z,87.28
2023-05-07T01:01:00.217Z,86.07
2023-05-07T01:06:04.338Z,86.43
2023-05-07T01:11:09.032Z,86.72
2023-05-07T01:16:11.271Z,86.38
2023-05-07T01:21:14.568Z,86.74
2023-05-07T01:26:17.195Z,86.18
2023-05-07T01:31:19.252Z,85.65
2023-05-07T01:36:26.909Z,86.24
2023-05-07T01:41:29.440Z,85.65
2023-05-07T01:46:33.774Z,86.16
2023-05-07T01:51:37.135Z,85.68
2023-05-07T01:56:39.203Z,85.00
2023-05-07T02:01:41.013Z,85.28
2023-05-07T02:06:42.779Z,85.40
2023-05-07T02:11:44.540Z,84.40
2023-05-07T02:16:46.562Z,85.58
2023-05-07T02:21:49.162Z,84.80
2023-05-07T02:26:51.285Z,85.79
2023-05-07T02:31:53.982Z,85.92
2023-05-07T02:36:56.592Z,86.22
2023-05-07T02:41:58.321Z,86.21
2023-05-07T02:47:00.109Z,85.99
2023-05-07T02:52:01.903Z,85.06
2023-05-07T02:57:04.164Z,85.36
2023-05-07T03:02:06.456Z,85.21
2023-05-07T03:07:08.241Z,85.02
2023-05-07T03:12:10.157Z,84.67
2023-05-07T03:17:12.090Z,84.27
2023-05-07T03:22:13.897Z,84.65
2023-05-07T03:27:15.645Z,83.37
2023-05-07T03:32:17.552Z,83.47
2023-05-07T03:37:19.974Z,83.50
2023-05-07T03:42:21.809Z,83.94
2023-05-07T03:47:23.581Z,83.07
2023-05-07T03:52:26.892Z,82.89
2023-05-07T03:57:28.696Z,83.61
2023-05-07T04:02:30.579Z,84.32
2023-05-07T04:07:33.025Z,84.84
2023-05-07T04:12:34.925Z,83.90
2023-05-07T04:17:36.858Z,83.77
2023-05-07T04:22:38.708Z,84.37
2023-05-07T04:27:40.704Z,84.69
2023-05-07T04:32:42.524Z,83.71
2023-05-07T04:37:44.372Z,84.22
2023-05-07T04:42:46.357Z,84.24
2023-05-07T04:47:48.250Z,84.18
2023-05-07T04:52:50.280Z,84.33
2023-05-07T04:57:54.041Z,83.89
2023-05-07T05:02:56.032Z,83.90
2023-05-07T05:07:58.033Z,82.35
2023-05-07T05:12:59.833Z,82.50
2023-05-07T05:18:02.175Z,82.32
2023-05-07T05:23:04.040Z,81.72
2023-05-07T05:28:06.028Z,80.72
2023-05-07T05:33:07.826Z,80.08
2023-05-07T05:38:09.866Z,80.44
2023-05-07T05:43:11.715Z,81.25
2023-05-07T05:48:13.684Z,79.68
2023-05-07T05:53:16.418Z,79.04
2023-05-07T05:58:18.258Z,80.04
2023-05-07T06:03:20.408Z,79.21
2023-05-07T06:08:22.265Z,78.72
2023-05-07T06:13:24.603Z,77.33
2023-05-07T06:18:26.585Z,73.61
2023-05-07T06:23:28.484Z,73.85
2023-05-07T06:28:31.770Z,74.62
2023-05-07T06:33:35.395Z,74.76
2023-05-07T06:38:37.989Z,72.91
2023-05-07T06:43:39.770Z,74.38
2023-05-07T06:48:41.589Z,76.24
2023-05-07T06:53:43.358Z,75.87
2023-05-07T06:58:45.113Z,74.81
2023-05-07T07:03:46.891Z,75.54
2023-05-07T07:08:48.685Z,75.87
2023-05-07T07:13:51.565Z,75.90
2023-05-07T07:18:53.322Z,74.44
2023-05-07T07:23:55.057Z,72.42
2023-05-07T07:28:56.853Z,66.39
2023-05-07T07:33:58.813Z,62.75
2023-05-07T07:39:00.810Z,57.57
2023-05-07T07:44:05.267Z,56.38
2023-05-07T07:49:07.068Z,52.36
2023-05-07T07:54:08.989Z,49.83
2023-05-07T07:59:10.865Z,46.89
2023-05-07T08:04:12.682Z,44.50
2023-05-07T08:09:14.493Z,46.51
2023-05-07T08:14:16.793Z,49.59
2023-05-07T08:19:18.539Z,45.49
2023-05-07T08:24:20.405Z,48.55
2023-05-07T08:29:22.184Z,47.61
2023-05-07T08:34:24.136Z,44.30
2023-05-07T08:39:25.984Z,41.71
2023-05-07T08:44:29.222Z,41.93
2023-05-07T08:49:31.100Z,44.35
2023-05-07T08:54:34.580Z,47.23
2023-05-07T08:59:37.714Z,46.21
2023-05-07T09:04:39.599Z,50.51
2023-05-07T09:09:41.481Z,48.94
2023-05-07T09:14:43.227Z,44.96
2023-05-07T09:19:46.876Z,45.99
2023-05-07T09:24:51.391Z,47.46
2023-05-07T09:29:53.190Z,45.53
2023-05-07T09:34:55.568Z,43.75
2023-05-07T09:39:57.429Z,45.52
2023-05-07T09:45:00.893Z,43.91
2023-05-07T09:50:11.533Z,44.79
2023-05-07T09:55:14.760Z,45.15
2023-05-07T10:00:24.421Z,44.48
2023-05-07T10:05:27.528Z,45.92
2023-05-07T10:10:31.731Z,48.58
2023-05-07T10:15:34.672Z,49.03
2023-05-07T10:20:38.593Z,50.58
2023-05-07T10:25:40.497Z,49.73
2023-05-07T10:31:07.090Z,50.26
2023-05-07T10:36:09.346Z,49.66
2023-05-07T10:41:12.702Z,48.73
2023-05-07T10:46:22.050Z,48.29
2023-05-07T10:51:23.899Z,49.39
2023-05-07T10:56:27.456Z,50.52
2023-05-07T11:01:59.914Z,51.76
2023-05-07T11:07:07.897Z,51.41
2023-05-07T11:12:09.785Z,51.42
2023-05-07T11:17:12.731Z,49.75
2023-05-07T11:22:32.805Z,49.98
2023-05-07T11:27:34.980Z,51.23
2023-05-07T11:32:37.018Z,51.52
2023-05-07T11:37:40.275Z,48.30
2023-05-07T11:42:45.093Z,49.53
2023-05-07T11:47:46.906Z,50.65
2023-05-07T11:52:53.562Z,50.61
2023-05-07T11:57:55.465Z,48.96
2023-05-07T12:02:57.416Z,48.84
2023-05-07T12:07:59.368Z,48.58
2023-05-07T12:13:01.211Z,47.39
2023-05-07T12:18:03.106Z,46.11
2023-05-07T12:23:05.731Z,47.49
2023-05-07T12:28:09.201Z,47.09
2023-05-07T12:33:11.970Z,48.89
2023-05-07T12:38:18.060Z,49.79
2023-05-07T12:43:29.241Z,48.60
2023-05-07T12:48:31.472Z,48.23
2023-05-07T12:53:33.276Z,46.59
2023-05-07T12:58:36.995Z,46.83
2023-05-07T13:03:39.899Z,45.58
2023-05-07T13:08:46.048Z,48.02
2023-05-07T13:13:47.865Z,48.38
2023-05-07T13:18:49.718Z,47.06
2023-05-07T13:23:51.558Z,46.98
2023-05-07T13:28:55.575Z,45.96
2023-05-07T13:33:57.497Z,45.68
2023-05-07T13:39:01.037Z,46.24
2023-05-07T13:44:02.908Z,45.01
2023-05-07T13:49:04.786Z,44.91
2023-05-07T13:54:06.618Z,45.54
2023-05-07T13:59:09.304Z,44.70
2023-05-07T14:04:11.139Z,43.85
2023-05-07T14:09:14.231Z,45.68
2023-05-07T14:14:16.047Z,44.36
2023-05-07T14:19:17.923Z,44.84
2023-05-07T14:24:34.626Z,44.47
2023-05-07T14:29:39.762Z,44.80
2023-05-07T14:34:41.540Z,44.61
2023-05-07T14:39:43.294Z,43.19
2023-05-07T14:44:46.504Z,44.35
2023-05-07T14:49:48.537Z,44.91
2023-05-07T14:54:50.309Z,44.96
2023-05-07T14:59:52.109Z,44.44
2023-05-07T15:04:54.221Z,44.68
2023-05-07T15:09:56.331Z,44.94
2023-05-07T15:14:58.162Z,46.40
2023-05-07T15:20:00.047Z,46.15
2023-05-07T15:25:01.895Z,46.46
2023-05-07T15:30:04.361Z,47.42
2023-05-07T15:35:07.703Z,47.00
2023-05-07T15:40:09.993Z,47.14
2023-05-07T15:45:12.485Z,47.86
2023-05-07T15:50:14.533Z,46.83
2023-05-07T15:55:16.329Z,48.12
2023-05-07T16:00:19.198Z,47.87
2023-05-07T16:05:20.989Z,46.61
2023-05-07T16:10:22.986Z,48.02
2023-05-07T16:15:24.789Z,47.68
2023-05-07T16:20:32.695Z,47.59
2023-05-07T16:25:34.633Z,47.20
2023-05-07T16:30:36.363Z,48.95
2023-05-07T16:35:38.245Z,48.96
2023-05-07T16:40:40.646Z,48.67
2023-05-07T16:45:42.418Z,48.30
2023-05-07T16:50:44.611Z,48.62
2023-05-07T16:55:46.443Z,48.29
2023-05-07T17:00:50.973Z,48.67
2023-05-07T17:05:53.286Z,48.94
2023-05-07T17:10:55.241Z,49.90
2023-05-07T17:15:57.086Z,50.37
2023-05-07T17:20:59.556Z,50.34
2023-05-07T17:26:01.322Z,50.25
2023-05-07T17:31:03.141Z,50.30
2023-05-07T17:36:05.682Z,51.09
2023-05-07T17:41:07.512Z,50.45
2023-05-07T17:46:10.326Z,50.24
2023-05-07T17:51:12.309Z,49.91
2023-05-07T17:56:14.193Z,50.94
2023-05-07T18:01:16.069Z,50.75
2023-05-07T18:06:19.123Z,51.66
2023-05-07T18:11:23.598Z,51.58
2023-05-07T18:16:26.097Z,52.12
2023-05-07T18:21:28.084Z,51.56
2023-05-07T18:26:29.817Z,52.33
2023-05-07T18:31:31.683Z,52.44
2023-05-07T18:36:33.461Z,52.84
2023-05-07T18:41:38.365Z,53.24
2023-05-07T18:46:40.285Z,53.10
2023-05-07T18:51:42.399Z,53.88
2023-05-07T18:56:45.062Z,54.07
2023-05-07T19:01:47.020Z,54.75
2023-05-07T19:06:48.840Z,54.54
2023-05-07T19:11:50.697Z,54.54
2023-05-07T19:16:52.454Z,53.84
2023-05-07T19:21:54.243Z,53.23
2023-05-07T19:26:56.140Z,52.87
2023-05-07T19:31:57.974Z,53.64
2023-05-07T19:36:59.795Z,53.83
2023-05-07T19:42:01.604Z,53.54
2023-05-07T19:47:03.676Z,53.59
2023-05-07T19:52:05.755Z,53.85
2023-05-07T19:57:07.592Z,54.10
2023-05-07T20:02:09.517Z,54.14
2023-05-07T20:07:11.404Z,55.23
2023-05-07T20:12:13.208Z,55.29
2023-05-07T20:17:15.043Z,56.43
2023-05-07T20:22:17.024Z,57.03
2023-05-07T20:27:22.089Z,58.17
2023-05-07T20:32:24.030Z,58.46
2023-05-07T20:37:26.866Z,59.93
2023-05-07T20:42:28.692Z,60.29
2023-05-07T20:47:33.651Z,61.48
2023-05-07T20:52:36.033Z,61.00
2023-05-07T20:57:37.788Z,61.20
2023-05-07T21:02:39.684Z,62.10
2023-05-07T21:07:41.656Z,62.32
2023-05-07T21:12:43.503Z,61.81
2023-05-07T21:17:45.515Z,61.76
2023-05-07T21:22:47.362Z,62.32
2023-05-07T21:27:49.243Z,61.94
2023-05-07T21:32:51.152Z,62.38
2023-05-07T21:37:53.065Z,62.19
2023-05-07T21:43:00.224Z,62.87
2023-05-07T21:48:24.492Z,63.38
2023-05-07T21:53:39.526Z,63.03
2023-05-07T21:58:57.712Z,64.14
2023-05-07T22:04:22.062Z,64.57
2023-05-07T22:10:00.721Z,64.72
2023-05-07T22:15:27.893Z,65.02
2023-05-07T22:20:37.307Z,65.20
2023-05-07T22:25:52.204Z,65.68
2023-05-07T22:31:14.851Z,66.41
2023-05-07T22:36:23.851Z,66.54
2023-05-07T22:41:25.879Z,66.58
2023-05-07T22:46:55.342Z,66.63
2023-05-07T22:52:12.789Z,66.99
2023-05-07T22:57:23.491Z,66.96
2023-05-07T23:02:36.573Z,67.05
2023-05-07T23:08:04.424Z,67.41
2023-05-07T23:13:14.017Z,68.22
2023-05-07T23:18:27.138Z,68.12
2023-05-07T23:23:37.434Z,68.14
2023-05-07T23:28:41.854Z,66.83
2023-05-07T23:33:46.905Z,67.36
2023-05-07T23:39:05.134Z,67.77
2023-05-07T23:44:16.601Z,68.18
2023-05-07T23:49:18.466Z,68.20
2023-05-07T23:54:20.299Z,68.53
2023-05-07T23:59:22.143Z,68.80
